Time;durP1;ratioP1;P1;durP2;ratioP2;P2;SDS_P1;SDS_P2;PMS_P1;PMS_P2;Temp;Humidity;BMP_temperature;BMP_pressure;BME280_temperature;BME280_humidity;BME280_pressure;Samples;Min_cycle;Max_cycle;Signal;HPM_P1;HPM_P2
2021/12/07 00:01:08;;;;;;;21.38;14.40;;;;;;;2.09;97.51;99862.44;4994335;28;20129;-46
2021/12/07 00:03:35;;;;;;;22.70;14.55;;;;;;;2.09;97.26;99857.28;4994249;28;20085;-47
2021/12/07 00:06:03;;;;;;;22.05;14.82;;;;;;;2.15;97.42;99861.16;4993944;28;20142;-49
2021/12/07 00:08:30;;;;;;;22.90;14.73;;;;;;;2.19;97.23;99868.53;4994003;28;20125;-48
2021/12/07 00:10:57;;;;;;;22.38;14.13;;;;;;;2.19;97.14;99865.13;4993758;28;20047;-47
2021/12/07 00:13:28;;;;;;;20.25;13.55;;;;;;;2.17;97.62;99869.59;4993880;28;20436;-49
2021/12/07 00:15:57;;;;;;;16.08;10.20;;;;;;;2.25;97.50;99880.97;4993744;28;20266;-49
2021/12/07 00:18:24;;;;;;;10.35;7.20;;;;;;;2.21;96.83;99871.81;4993501;28;20054;-47
2021/12/07 00:20:51;;;;;;;9.55;5.90;;;;;;;2.18;96.65;99877.22;4993903;28;20149;-48
2021/12/07 00:23:18;;;;;;;7.28;5.57;;;;;;;2.16;95.81;99879.09;4993848;28;20050;-50
2021/12/07 00:25:45;;;;;;;10.45;7.00;;;;;;;2.15;95.89;99882.63;4993802;28;20050;-51
2021/12/07 00:28:11;;;;;;;12.05;7.45;;;;;;;2.12;95.99;99885.44;4993485;28;20062;-49
2021/12/07 00:30:38;;;;;;;8.20;6.35;;;;;;;2.17;96.26;99885.09;4993423;28;20137;-46
2021/12/07 00:33:19;;;;;;;7.85;5.80;;;;;;;2.18;95.96;99891.88;4994027;28;20054;-49
2021/12/07 00:35:45;;;;;;;7.15;5.65;;;;;;;2.12;95.78;99893.19;4993521;28;20493;-47
2021/12/07 00:38:15;;;;;;;7.53;6.13;;;;;;;2.09;95.67;99898.59;4993126;28;20077;-49
2021/12/07 00:40:43;;;;;;;9.00;6.65;;;;;;;2.05;96.04;99902.34;4993675;28;20050;-48
2021/12/07 00:43:10;;;;;;;8.57;6.95;;;;;;;2.05;96.15;99899.75;4993575;28;20475;-46
2021/12/07 00:45:38;;;;;;;8.70;6.80;;;;;;;2.06;96.36;99893.66;4993104;28;20081;-47
2021/12/07 00:48:07;;;;;;;9.88;7.50;;;;;;;2.11;96.18;99895.88;4993359;28;20046;-48
2021/12/07 00:50:36;;;;;;;9.77;7.97;;;;;;;2.12;96.62;99893.19;4993094;28;20054;-46
2021/12/07 00:53:05;;;;;;;10.93;8.30;;;;;;;2.16;96.44;99899.75;4993716;28;20133;-53
2021/12/07 00:55:34;;;;;;;11.77;9.05;;;;;;;2.21;97.20;99901.97;4992951;28;20053;-49
2021/12/07 00:58:07;;;;;;;16.13;11.00;;;;;;;2.27;97.26;99902.31;4993010;28;20472;-52
2021/12/07 01:00:33;;;;;;;21.17;13.55;;;;;;;2.38;97.38;99904.03;4993344;28;20124;-48
2021/12/07 01:03:00;;;;;;;23.15;16.95;;;;;;;2.43;97.19;99894.16;4993157;28;20050;-47
2021/12/07 01:05:33;;;;;;;29.77;19.48;;;;;;;2.57;97.42;99913.72;4993178;28;20054;-48
2021/12/07 01:08:18;;;;;;;34.85;20.98;;;;;;;2.66;97.20;99918.16;4992937;28;20057;-48
2021/12/07 01:24:43;;;;;;;26.55;17.23;;;;;;;3.13;96.53;99931.56;4992686;28;20057;-49
2021/12/07 01:27:15;;;;;;;21.52;15.35;;;;;;;3.16;96.35;99936.50;4992897;28;20057;-49
2021/12/07 01:29:44;;;;;;;25.37;17.70;;;;;;;3.19;96.25;99944.00;4992967;28;20128;-52
2021/12/07 01:32:22;;;;;;;26.95;17.98;;;;;;;3.20;96.48;99940.47;4992214;28;20054;-47
2021/12/07 01:37:51;;;;;;;31.60;19.52;;;;;;;3.28;96.22;99951.84;4992179;28;20149;-48
2021/12/07 01:40:31;;;;;;;30.08;19.30;;;;;;;3.34;95.98;99961.66;4992781;28;20065;-49
2021/12/07 01:51:21;;;;;;;26.88;17.08;;;;;;;3.42;95.63;99989.47;4991049;28;20188;-45
2021/12/07 02:01:58;;;;;;;25.35;14.32;;;;;;;3.46;95.51;99990.84;4990291;28;20057;-49
2021/12/07 02:04:25;;;;;;;22.33;13.02;;;;;;;3.48;95.43;99998.50;4992390;28;20418;-47
2021/12/07 02:06:52;;;;;;;25.27;12.50;;;;;;;3.48;95.63;100011.44;4992259;28;20050;-49
2021/12/07 02:09:20;;;;;;;23.00;11.50;;;;;;;3.48;95.41;100004.50;4992082;28;20061;-50
2021/12/07 02:11:49;;;;;;;23.92;11.38;;;;;;;3.52;95.01;100005.06;4992604;28;20062;-49
2021/12/07 02:14:17;;;;;;;19.20;10.52;;;;;;;3.54;95.37;100006.56;4992068;28;20054;-47
2021/12/07 02:16:45;;;;;;;25.20;11.45;;;;;;;3.67;95.00;100022.72;4992211;28;20051;-45
2021/12/07 02:19:12;;;;;;;29.17;10.73;;;;;;;3.71;95.21;100018.13;4992102;28;20061;-47
2021/12/07 02:21:40;;;;;;;28.98;13.73;;;;;;;3.81;94.60;100020.75;4992068;28;20133;-46
2021/12/07 02:24:07;;;;;;;24.10;11.35;;;;;;;3.78;95.22;100033.97;4992153;28;20081;-50
2021/12/07 02:26:33;;;;;;;26.10;12.80;;;;;;;3.81;94.78;100034.50;4992008;28;20100;-48
2021/12/07 02:29:00;;;;;;;29.80;14.70;;;;;;;3.86;95.35;100040.13;4992239;28;20448;-47
2021/12/07 02:31:27;;;;;;;33.50;13.85;;;;;;;3.89;95.08;100044.22;4991918;28;20065;-48
2021/12/07 02:33:55;;;;;;;28.85;13.40;;;;;;;3.92;94.85;100049.97;4992343;28;20104;-45
2021/12/07 02:36:21;;;;;;;23.85;13.50;;;;;;;3.89;94.74;100050.22;4991757;28;20046;-50
2021/12/07 02:38:50;;;;;;;29.80;13.30;;;;;;;3.91;93.90;100057.88;4991640;28;20196;-50
2021/12/07 02:41:17;;;;;;;26.65;12.70;;;;;;;3.92;94.15;100064.69;4992135;28;20476;-46
2021/12/07 02:43:44;;;;;;;25.92;12.77;;;;;;;3.92;94.87;100069.84;4992203;28;20348;-49
2021/12/07 02:46:11;;;;;;;32.50;13.18;;;;;;;3.96;94.12;100076.44;4991947;28;20053;-46
2021/12/07 02:48:37;;;;;;;27.13;12.65;;;;;;;3.97;94.42;100080.66;4991819;28;20054;-50
2021/12/07 02:51:04;;;;;;;28.83;12.70;;;;;;;3.94;94.46;100088.66;4992154;28;20054;-50
2021/12/07 02:53:37;;;;;;;32.95;12.15;;;;;;;4.01;94.37;100087.22;4991812;28;20556;-45
2021/12/07 02:56:07;;;;;;;33.40;12.63;;;;;;;4.03;93.56;100094.88;4991963;28;20417;-48
2021/12/07 02:58:34;;;;;;;29.33;10.95;;;;;;;4.03;94.20;100100.84;4991942;28;20141;-47
2021/12/07 03:01:08;;;;;;;24.92;10.57;;;;;;;4.04;94.00;100099.91;4991930;28;20061;-51
2021/12/07 03:03:40;;;;;;;25.13;10.80;;;;;;;4.01;93.88;100110.53;4993417;28;20420;-50
2021/12/07 03:06:16;;;;;;;25.73;10.67;;;;;;;3.96;93.48;100107.50;4995527;28;20049;-52
2021/12/07 03:09:20;;;;;;;26.42;10.90;;;;;;;3.98;94.06;100121.94;4995669;28;20106;-49
2021/12/07 03:28:14;;;;;;;23.65;9.20;;;;;;;4.14;92.87;100155.19;4994944;28;20125;-48
2021/12/07 03:30:41;;;;;;;29.17;8.55;;;;;;;4.15;92.08;100154.22;4994515;28;20137;-45
2021/12/07 03:33:09;;;;;;;29.63;8.85;;;;;;;4.09;93.04;100170.25;4994599;28;20116;-47
2021/12/07 03:35:36;;;;;;;23.52;7.95;;;;;;;4.10;92.96;100177.09;4994692;28;20129;-46
2021/12/07 03:38:03;;;;;;;32.83;8.07;;;;;;;4.13;92.16;100181.19;4994543;28;20108;-46
2021/12/07 03:40:31;;;;;;;34.97;9.05;;;;;;;4.11;92.17;100194.25;4994789;28;20051;-46
2021/12/07 03:42:57;;;;;;;26.73;10.90;;;;;;;4.18;92.79;100192.81;4994663;28;20065;-48
2021/12/07 03:45:26;;;;;;;36.78;12.95;;;;;;;4.12;92.49;100182.97;4994267;28;20054;-50
2021/12/07 03:47:53;;;;;;;35.45;12.73;;;;;;;4.16;93.00;100207.66;4994304;28;20093;-48
2021/12/07 03:50:21;;;;;;;32.38;12.05;;;;;;;4.20;92.82;100213.41;4994646;28;20114;-51
2021/12/07 03:52:48;;;;;;;32.53;12.88;;;;;;;4.11;93.37;100206.38;4994472;28;20050;-53
2021/12/07 03:55:14;;;;;;;27.65;12.80;;;;;;;4.11;93.79;100212.38;4994435;28;20090;-48
2021/12/07 03:57:41;;;;;;;30.58;12.43;;;;;;;4.12;92.96;100215.81;4994196;28;20133;-48
2021/12/07 04:00:12;;;;;;;37.17;13.43;;;;;;;4.15;92.78;100224.16;4994341;28;20145;-46
2021/12/07 04:02:41;;;;;;;33.05;14.88;;;;;;;4.04;93.22;100219.00;4994144;28;20109;-50
2021/12/07 04:05:12;;;;;;;45.50;19.75;;;;;;;4.02;93.58;100227.84;4993854;28;20050;-47
2021/12/07 04:07:38;;;;;;;55.25;21.63;;;;;;;4.00;92.82;100238.31;4994121;28;20533;-44
2021/12/07 04:10:07;;;;;;;41.63;18.45;;;;;;;3.89;93.32;100228.00;4994425;28;20137;-48
2021/12/07 04:12:34;;;;;;;45.30;17.40;;;;;;;3.85;93.78;100232.59;4994066;28;20055;-48
2021/12/07 04:15:01;;;;;;;37.75;16.00;;;;;;;3.81;93.74;100241.56;4993698;28;20129;-49
2021/12/07 04:17:28;;;;;;;28.73;11.32;;;;;;;3.75;93.37;100238.66;4993864;28;20084;-47
2021/12/07 04:19:56;;;;;;;30.23;11.32;;;;;;;3.80;93.17;100249.44;4993830;28;20137;-46
2021/12/07 04:22:23;;;;;;;31.27;12.55;;;;;;;3.81;93.34;100238.13;4993779;28;20132;-46
2021/12/07 04:24:49;;;;;;;27.33;12.40;;;;;;;3.91;93.78;100267.53;4993797;28;20086;-48
2021/12/07 04:27:16;;;;;;;22.65;10.00;;;;;;;3.82;93.62;100257.91;4993681;28;20522;-48
2021/12/07 04:29:43;;;;;;;22.88;9.32;;;;;;;3.84;93.10;100259.44;4993777;28;20062;-45
2021/12/07 04:32:10;;;;;;;18.08;8.52;;;;;;;3.82;93.47;100276.00;4993666;28;20058;-48
2021/12/07 04:34:36;;;;;;;21.38;9.38;;;;;;;3.75;93.90;100275.72;4993689;28;20133;-46
2021/12/07 04:37:05;;;;;;;19.45;9.02;;;;;;;3.78;94.04;100283.19;4993759;28;20390;-47
2021/12/07 04:39:31;;;;;;;20.23;8.48;;;;;;;3.76;93.56;100279.94;4993131;28;20209;-44
2021/12/07 04:41:58;;;;;;;20.38;8.93;;;;;;;3.78;93.53;100290.16;4993384;28;20418;-48
2021/12/07 04:44:25;;;;;;;26.02;10.07;;;;;;;3.83;93.65;100282.84;4993244;28;20564;-47
2021/12/07 04:47:04;;;;;;;23.95;9.82;;;;;;;3.82;93.48;100289.78;4993665;28;20097;-49
2021/12/07 04:49:56;;;;;;;23.88;11.40;;;;;;;3.73;93.92;100302.66;4993396;28;20054;-45
2021/12/07 04:57:53;;;;;;;29.10;12.00;;;;;;;3.62;93.90;100293.94;4993550;28;20420;-46
2021/12/07 05:00:21;;;;;;;24.80;11.15;;;;;;;3.59;93.75;100296.78;4993390;28;20093;-44
2021/12/07 05:02:54;;;;;;;27.67;11.85;;;;;;;3.56;93.98;100302.19;4993054;28;20057;-45
2021/12/07 05:05:26;;;;;;;31.60;10.98;;;;;;;3.57;93.89;100297.84;4992725;28;20113;-46
2021/12/07 05:07:56;;;;;;;30.20;10.70;;;;;;;3.52;93.93;100310.31;4992751;28;20050;-46
2021/12/07 05:10:30;;;;;;;27.48;10.85;;;;;;;3.53;93.88;100299.00;4993198;28;20145;-48
2021/12/07 05:13:23;;;;;;;23.55;10.00;;;;;;;3.52;94.58;100305.94;4992741;28;20054;-45
2021/12/07 05:16:09;;;;;;;;;;;;;;;3.44;94.30;100323.81;4993219;28;20133;-52
2021/12/07 05:18:57;;;;;;;25.20;10.25;;;;;;;3.50;94.65;100319.94;4992361;28;19926;-47
2021/12/07 05:24:14;;;;;;;34.03;11.30;;;;;;;3.50;94.22;100314.78;4992709;28;20056;-48
2021/12/07 05:37:53;;;;;;;24.65;12.02;;;;;;;3.49;93.89;100332.06;4992340;28;20089;-44
2021/12/07 05:40:25;;;;;;;26.00;9.45;;;;;;;3.47;93.86;100333.94;4992752;28;20458;-48
2021/12/07 05:42:52;;;;;;;30.90;10.13;;;;;;;3.47;93.91;100339.09;4992907;28;20662;-48
2021/12/07 05:45:22;;;;;;;21.13;10.05;;;;;;;3.41;93.65;100349.09;4992421;28;20089;-48
2021/12/07 05:47:50;;;;;;;31.95;9.75;;;;;;;3.41;93.67;100355.09;4990164;28;20097;-45
2021/12/07 05:50:19;;;;;;;21.65;9.23;;;;;;;3.36;93.90;100366.72;5009915;23;20468;-77
2021/12/07 05:52:46;;;;;;;18.08;9.05;;;;;;;3.40;93.35;100363.78;4980669;28;20139;-82
2021/12/07 05:55:13;;;;;;;22.85;8.85;;;;;;;3.45;93.61;100366.84;4974744;28;20054;-79
2021/12/07 05:57:41;;;;;;;22.30;8.73;;;;;;;3.43;93.82;100376.50;4975533;28;20475;-78
2021/12/07 06:00:12;;;;;;;23.38;8.77;;;;;;;3.47;93.52;100380.50;4976240;28;20086;-78
2021/12/07 06:02:39;;;;;;;22.85;8.32;;;;;;;3.45;93.74;100381.56;4976276;28;20054;-78
2021/12/07 06:05:06;;;;;;;26.45;8.55;;;;;;;3.38;93.13;100376.00;4976951;28;20053;-79
2021/12/07 06:07:33;;;;;;;27.55;8.93;;;;;;;3.36;93.48;100388.25;4977337;28;20086;-81
2021/12/07 06:09:59;;;;;;;31.27;10.43;;;;;;;3.37;92.41;100418.34;4984795;28;20154;-79
2021/12/07 06:12:26;;;;;;;19.70;7.47;;;;;;;3.39;92.93;100407.88;4981372;28;20082;-80
2021/12/07 06:14:55;;;;;;;20.48;7.90;;;;;;;3.38;92.59;100422.56;4980889;28;20046;-79
2021/12/07 06:17:23;;;;;;;26.83;7.60;;;;;;;3.32;92.96;100407.50;4977183;28;20114;-83
2021/12/07 06:19:49;;;;;;;18.77;7.45;;;;;;;3.30;93.14;100414.59;4976644;28;20054;-80
2021/12/07 06:22:16;;;;;;;23.88;8.38;;;;;;;3.24;93.02;100428.78;4977100;28;20085;-80
2021/12/07 06:24:43;;;;;;;21.98;7.07;;;;;;;3.19;93.08;100427.47;4981296;28;20106;-80
2021/12/07 06:27:10;;;;;;;26.75;8.48;;;;;;;3.21;92.97;100426.44;4978699;28;20448;-81
2021/12/07 06:29:37;;;;;;;28.55;9.07;;;;;;;3.22;93.44;100435.84;4976876;28;20109;-82
2021/12/07 06:32:06;;;;;;;25.38;8.98;;;;;;;3.24;93.41;100443.47;4977264;28;20411;-80
2021/12/07 06:34:33;;;;;;;21.40;9.48;;;;;;;3.22;92.72;100433.25;4974572;28;20087;-79
2021/12/07 06:37:00;;;;;;;22.40;9.13;;;;;;;3.27;92.52;100436.31;4976902;28;20086;-80
2021/12/07 06:39:27;;;;;;;25.05;9.40;;;;;;;3.26;92.70;100446.78;4978336;28;20133;-82
2021/12/07 06:41:54;;;;;;;23.90;9.00;;;;;;;3.33;92.23;100443.59;4979768;28;20105;-80
2021/12/07 06:44:21;;;;;;;30.67;10.57;;;;;;;3.32;92.24;100435.97;4978504;28;20085;-80
2021/12/07 06:46:48;;;;;;;22.75;10.35;;;;;;;3.37;92.11;100445.97;4980079;28;20089;-81
2021/12/07 06:49:16;;;;;;;27.75;9.50;;;;;;;3.36;92.79;100428.78;4979269;28;20114;-82
2021/12/07 06:51:43;;;;;;;20.75;8.25;;;;;;;3.35;92.23;100446.06;4979759;28;20145;-83
2021/12/07 06:54:09;;;;;;;24.08;9.63;;;;;;;3.33;91.79;100445.38;4986626;28;20149;-82
2021/12/07 06:56:36;;;;;;;30.35;8.95;;;;;;;3.33;91.45;100442.78;4986339;28;20047;-81
2021/12/07 06:59:03;;;;;;;25.40;8.95;;;;;;;3.31;92.12;100449.81;4980571;28;20379;-82
2021/12/07 07:01:30;;;;;;;24.10;7.97;;;;;;;3.34;91.43;100447.84;4980877;28;20075;-84
2021/12/07 07:03:56;;;;;;;22.27;7.28;;;;;;;3.28;91.87;100443.16;4978672;28;20051;-81
2021/12/07 07:06:24;;;;;;;20.60;7.80;;;;;;;3.32;91.89;100433.38;4978994;28;20134;-82
2021/12/07 07:08:51;;;;;;;23.50;8.30;;;;;;;3.17;92.58;100434.53;4978816;28;20543;-83
2021/12/07 07:11:18;;;;;;;19.95;7.00;;;;;;;3.06;92.47;100437.06;4976119;28;20460;-82
2021/12/07 07:14:08;;;;;;;18.58;7.15;;;;;;;2.99;92.30;100436.69;4978314;28;20043;-84
2021/12/07 07:16:35;;;;;;;24.67;7.40;;;;;;;2.99;92.01;100453.03;4971515;28;20123;-84
2021/12/07 07:19:02;;;;;;;21.30;8.93;;;;;;;2.98;91.90;100448.78;4978587;28;20133;-83
2021/12/07 07:21:30;;;;;;;23.52;7.32;;;;;;;2.95;92.39;100461.13;4976490;28;20142;-82
2021/12/07 07:23:57;;;;;;;19.35;7.38;;;;;;;2.93;92.31;100468.16;4973546;28;20134;-80
2021/12/07 07:26:23;;;;;;;22.10;7.70;;;;;;;2.86;92.17;100447.09;4971651;28;20046;-80
2021/12/07 07:28:50;;;;;;;18.88;7.30;;;;;;;2.79;92.31;100461.41;4977403;28;20050;-81
2021/12/07 07:31:17;;;;;;;17.08;7.20;;;;;;;2.75;93.20;100466.91;4977063;28;20370;-80
2021/12/07 07:33:44;;;;;;;23.45;7.82;;;;;;;2.77;92.89;100468.47;4976449;28;20499;-80
2021/12/07 07:36:10;;;;;;;20.38;8.25;;;;;;;2.64;93.28;100473.66;4978445;28;20051;-79
2021/12/07 07:38:39;;;;;;;25.27;9.85;;;;;;;2.64;93.82;100480.59;4979829;28;20101;-80
2021/12/07 07:41:05;;;;;;;24.05;10.73;;;;;;;2.65;93.15;100470.16;4970493;28;20054;-78
2021/12/07 07:43:32;;;;;;;25.50;11.13;;;;;;;2.58;93.48;100481.03;4980916;28;20153;-78
2021/12/07 07:46:00;;;;;;;28.65;11.05;;;;;;;2.50;94.16;100480.75;4980701;28;20061;-78
2021/12/07 07:48:27;;;;;;;26.80;11.45;;;;;;;2.46;93.97;100479.31;4981059;28;20059;-79
2021/12/07 07:50:53;;;;;;;25.42;11.05;;;;;;;2.47;94.01;100484.34;4979170;28;20047;-81
2021/12/07 07:53:21;;;;;;;29.27;10.43;;;;;;;2.47;94.16;100480.94;4980548;28;20134;-79
2021/12/07 07:55:49;;;;;;;27.38;10.90;;;;;;;2.44;94.46;100482.00;4980976;28;20115;-79
2021/12/07 07:58:17;;;;;;;25.73;8.88;;;;;;;2.48;94.06;100472.28;4979314;28;20053;-79
2021/12/07 08:00:44;;;;;;;22.15;8.98;;;;;;;2.48;94.22;100480.03;4979909;28;20352;-80
2021/12/07 08:03:11;;;;;;;27.20;9.93;;;;;;;2.53;93.80;100475.34;4977835;28;20137;-79
2021/12/07 08:05:39;;;;;;;26.45;8.18;;;;;;;2.72;93.39;100472.31;4977197;28;20145;-80
2021/12/07 08:08:05;;;;;;;27.38;8.98;;;;;;;2.65;92.86;100471.91;4976694;28;20047;-79
2021/12/07 08:10:32;;;;;;;23.17;8.95;;;;;;;2.73;92.87;100482.53;4977435;28;20053;-79
2021/12/07 08:13:02;;;;;;;25.45;8.82;;;;;;;2.76;92.68;100473.72;4977248;28;20050;-79
2021/12/07 08:15:31;;;;;;;23.52;8.32;;;;;;;2.77;92.61;100478.78;4976898;28;20051;-79
2021/12/07 08:17:57;;;;;;;22.58;8.18;;;;;;;2.81;92.73;100487.16;4977992;28;20459;-79
2021/12/07 08:20:25;;;;;;;19.92;8.13;;;;;;;2.85;92.32;100486.78;4977308;28;20130;-79
2021/12/07 08:22:52;;;;;;;22.80;7.68;;;;;;;2.86;92.35;100487.63;4978025;28;20142;-80
2021/12/07 08:25:18;;;;;;;21.08;7.03;;;;;;;2.92;92.33;100487.19;4977194;28;20046;-79
2021/12/07 08:27:45;;;;;;;24.73;6.88;;;;;;;2.86;92.73;100475.53;4977032;28;20051;-79
2021/12/07 08:30:15;;;;;;;23.83;7.90;;;;;;;2.90;92.86;100479.53;4976950;28;20441;-79
2021/12/07 08:32:45;;;;;;;19.77;6.25;;;;;;;2.94;92.62;100474.97;4977074;28;20064;-79
2021/12/07 08:35:13;;;;;;;23.13;7.20;;;;;;;2.96;92.58;100484.28;4976723;28;20145;-79
2021/12/07 08:37:40;;;;;;;26.27;7.47;;;;;;;2.98;92.36;100482.41;4976542;28;20356;-81
2021/12/07 08:40:09;;;;;;;18.50;8.10;;;;;;;3.12;92.30;100490.91;4976131;28;20059;-79
2021/12/07 08:42:36;;;;;;;24.45;7.38;;;;;;;3.14;91.79;100492.47;4977008;28;20376;-79
2021/12/07 08:45:03;;;;;;;19.55;6.40;;;;;;;3.22;91.85;100494.50;4976415;28;20420;-79
2021/12/07 08:47:31;;;;;;;23.67;7.72;;;;;;;3.17;91.13;100506.94;4976153;28;20051;-81
2021/12/07 08:49:58;;;;;;;22.05;6.70;;;;;;;3.34;90.96;100507.31;4975882;28;20154;-79
2021/12/07 08:52:25;;;;;;;20.67;7.18;;;;;;;3.35;90.84;100502.97;4975636;28;20093;-80
2021/12/07 09:00:23;;;;;;;20.70;7.30;;;;;;;3.57;90.07;100509.97;4975117;28;20136;-80
2021/12/07 09:02:54;;;;;;;20.38;7.38;;;;;;;3.65;89.98;100508.47;4976188;28;20528;-79
2021/12/07 09:05:21;;;;;;;21.88;7.80;;;;;;;3.53;90.39;100503.38;4977335;28;20046;-79
2021/12/07 09:07:48;;;;;;;24.70;6.90;;;;;;;3.53;90.63;100498.22;4976294;28;20082;-80
2021/12/07 09:10:15;;;;;;;22.40;8.23;;;;;;;3.58;90.32;100498.69;4977057;28;20074;-80
2021/12/07 09:12:42;;;;;;;24.63;7.65;;;;;;;3.62;89.88;100500.94;4976038;28;20051;-81
2021/12/07 09:15:10;;;;;;;21.95;7.38;;;;;;;3.72;89.74;100505.44;4976567;28;20138;-80
2021/12/07 09:17:37;;;;;;;18.58;7.45;;;;;;;3.74;89.79;100516.50;4974906;28;20134;-79
2021/12/07 09:20:07;;;;;;;22.40;7.25;;;;;;;3.77;89.60;100522.28;4976154;28;20054;-80
2021/12/07 09:22:33;;;;;;;27.17;8.55;;;;;;;3.86;89.26;100516.38;4977250;28;20115;-80
2021/12/07 09:25:00;;;;;;;18.55;7.82;;;;;;;3.93;88.98;100521.91;4975780;28;20050;-80
2021/12/07 09:27:27;;;;;;;21.45;7.50;;;;;;;3.89;88.86;100510.16;4975830;28;20114;-79
2021/12/07 09:29:53;;;;;;;17.10;7.90;;;;;;;3.90;88.98;100524.75;4975554;28;20163;-80
2021/12/07 09:32:22;;;;;;;24.65;8.02;;;;;;;3.93;89.32;100521.91;4976019;28;20058;-80
2021/12/07 09:34:49;;;;;;;18.42;7.95;;;;;;;3.92;89.06;100515.91;4975239;28;20051;-81
2021/12/07 09:37:17;;;;;;;21.05;7.78;;;;;;;4.02;89.40;100521.22;4975470;28;20051;-80
2021/12/07 09:39:44;;;;;;;19.83;8.68;;;;;;;4.06;88.50;100517.47;4975552;28;20363;-80
2021/12/07 09:42:11;;;;;;;17.10;7.70;;;;;;;4.19;88.96;100525.94;4974956;28;20448;-80
2021/12/07 09:44:38;;;;;;;30.45;9.55;;;;;;;4.17;88.81;100519.25;4975649;28;20488;-81
2021/12/07 09:47:04;;;;;;;27.42;7.60;;;;;;;4.21;87.58;100515.47;4975218;28;20233;-79
2021/12/07 09:49:31;;;;;;;21.17;7.03;;;;;;;4.12;88.55;100506.66;4977526;28;20078;-79
2021/12/07 09:51:57;;;;;;;22.08;6.65;;;;;;;4.17;87.99;100514.06;4975949;28;20090;-80
2021/12/07 09:54:26;;;;;;;19.25;6.55;;;;;;;4.23;88.39;100513.59;4976203;28;20134;-80
2021/12/07 09:56:52;;;;;;;19.20;6.63;;;;;;;4.25;88.08;100507.31;4975196;28;20141;-80
2021/12/07 09:59:19;;;;;;;16.95;6.38;;;;;;;4.29;87.12;100508.72;4975181;28;20142;-79
2021/12/07 10:01:46;;;;;;;22.67;6.53;;;;;;;4.38;86.55;100514.97;4975957;28;20047;-80
2021/12/07 10:04:13;;;;;;;18.40;5.78;;;;;;;4.43;87.18;100514.63;4975384;28;20101;-80
2021/12/07 10:06:40;;;;;;;15.73;5.97;;;;;;;4.48;87.20;100502.13;4974433;28;20385;-78
2021/12/07 10:09:07;;;;;;;16.42;6.90;;;;;;;4.58;86.88;100495.28;4974355;28;20053;-79
2021/12/07 10:11:36;;;;;;;24.67;6.25;;;;;;;4.51;86.17;100496.72;4974619;28;20057;-78
2021/12/07 10:14:03;;;;;;;19.15;5.53;;;;;;;4.53;86.51;100493.06;4978807;28;20046;-78
2021/12/07 10:16:30;;;;;;;19.42;5.35;;;;;;;4.52;86.30;100481.03;4978366;28;20078;-79
2021/12/07 10:18:56;;;;;;;15.45;5.95;;;;;;;4.61;85.86;100482.09;4978103;28;20051;-78
2021/12/07 10:21:26;;;;;;;14.52;6.18;;;;;;;4.65;86.16;100483.50;4977931;28;20054;-78
2021/12/07 10:23:55;;;;;;;21.13;5.93;;;;;;;4.65;85.66;100481.72;4979066;28;20423;-78
2021/12/07 10:26:24;;;;;;;17.60;5.95;;;;;;;4.72;85.66;100478.66;4978404;28;20059;-79
2021/12/07 10:28:54;;;;;;;11.38;5.15;;;;;;;4.73;85.91;100469.91;4978624;28;20054;-78
2021/12/07 10:31:28;;;;;;;22.02;5.47;;;;;;;4.78;85.45;100458.22;4978850;28;20141;-79
2021/12/07 10:33:58;;;;;;;16.50;5.45;;;;;;;4.80;85.67;100466.69;4978831;28;20413;-79
2021/12/07 10:36:27;;;;;;;15.50;5.32;;;;;;;4.80;85.09;100474.47;4978754;28;20125;-79
2021/12/07 10:39:01;;;;;;;25.40;6.20;;;;;;;4.91;85.41;100471.84;4978707;28;20043;-79
2021/12/07 10:41:32;;;;;;;13.57;4.60;;;;;;;4.95;85.26;100470.66;4978667;28;20054;-79
2021/12/07 10:44:04;;;;;;;15.57;6.40;;;;;;;4.98;84.07;100465.22;4978612;28;20051;-79
2021/12/07 10:46:34;;;;;;;11.05;4.32;;;;;;;5.03;83.32;100456.25;4977631;28;20063;-78
2021/12/07 10:49:15;;;;;;;13.63;4.82;;;;;;;4.99;82.97;100461.69;4978797;28;20051;-78
2021/12/07 10:51:55;;;;;;;14.75;4.70;;;;;;;4.98;82.60;100469.59;4978775;28;20061;-79
2021/12/07 10:54:23;;;;;;;18.17;4.97;;;;;;;5.02;82.75;100462.41;4977348;28;20054;-79
2021/12/07 10:56:50;;;;;;;16.33;4.90;;;;;;;5.04;83.62;100470.88;4977940;28;20086;-80
2021/12/07 10:59:18;;;;;;;16.67;5.43;;;;;;;5.13;82.04;100468.34;4978137;28;20051;-79
2021/12/07 11:01:48;;;;;;;17.15;4.70;;;;;;;5.16;82.71;100472.47;4978282;28;20061;-78
2021/12/07 11:04:26;;;;;;;13.75;4.68;;;;;;;5.13;81.17;100462.34;4978359;28;20050;-79
2021/12/07 11:07:12;;;;;;;10.80;4.47;;;;;;;5.17;80.40;100463.75;4978315;28;20137;-79
2021/12/07 11:09:50;;;;;;;10.57;4.03;;;;;;;5.18;79.47;100452.44;4978802;28;20129;-79
2021/12/07 11:12:19;;;;;;;11.25;4.18;;;;;;;5.13;81.25;100441.59;4979019;28;20401;-80
2021/12/07 11:14:51;;;;;;;14.95;4.00;;;;;;;5.25;80.48;100435.38;4978616;28;20050;-79
2021/12/07 11:17:22;;;;;;;15.10;5.05;;;;;;;5.20;79.79;100438.34;4978030;28;20475;-78
2021/12/07 11:19:48;;;;;;;16.42;4.70;;;;;;;5.24;78.75;100429.38;4978274;28;20391;-79
2021/12/07 11:22:18;;;;;;;13.18;4.28;;;;;;;5.23;78.54;100416.53;4978506;28;20441;-79
2021/12/07 11:24:47;;;;;;;14.98;4.30;;;;;;;5.25;78.74;100409.44;4977685;28;20145;-80
2021/12/07 11:30:08;;;;;;;8.95;4.25;;;;;;;5.18;78.12;100390.16;4979388;28;20057;-79
2021/12/07 11:32:36;;;;;;;12.65;4.28;;;;;;;5.16;77.62;100395.47;4978546;28;20089;-79
2021/12/07 11:35:16;;;;;;;10.63;4.47;;;;;;;5.17;77.35;100383.34;4977403;28;20097;-79
2021/12/07 11:37:44;;;;;;;11.05;4.60;;;;;;;5.19;78.28;100381.44;4979175;28;20090;-79
2021/12/07 11:40:13;;;;;;;15.95;5.15;;;;;;;5.31;77.28;100380.41;4979275;28;20097;-79
2021/12/07 11:42:42;;;;;;;8.90;4.80;;;;;;;5.25;77.62;100367.94;4978364;28;20055;-81
2021/12/07 11:45:14;;;;;;;11.02;4.40;;;;;;;5.24;78.14;100366.28;4978185;28;20101;-79
2021/12/07 11:47:43;;;;;;;10.38;5.28;;;;;;;5.32;75.98;100374.25;4979084;28;20047;-79
2021/12/07 11:50:17;;;;;;;11.10;4.97;;;;;;;5.35;77.77;100368.81;4978471;28;20439;-79
2021/12/07 11:52:50;;;;;;;10.35;4.70;;;;;;;5.37;76.20;100382.47;4979843;28;20451;-83
2021/12/07 11:55:18;;;;;;;13.10;4.40;;;;;;;5.36;76.08;100373.06;4979121;28;20050;-80
2021/12/07 11:57:46;;;;;;;10.50;4.38;;;;;;;5.39;75.27;100372.78;4980491;28;20162;-81
2021/12/07 12:00:19;;;;;;;13.65;4.32;;;;;;;5.36;74.77;100373.06;4978897;28;20082;-82
2021/12/07 12:02:47;;;;;;;12.80;4.35;;;;;;;5.32;74.44;100361.28;4978520;28;20109;-82
2021/12/07 12:05:14;;;;;;;9.20;3.97;;;;;;;5.40;73.61;100371.84;4980308;28;20097;-82
2021/12/07 12:07:47;;;;;;;16.42;6.28;;;;;;;5.35;73.74;100363.63;4980548;28;20066;-83
2021/12/07 12:10:15;;;;;;;9.13;4.20;;;;;;;5.39;74.10;100369.38;4978549;28;20050;-82
2021/12/07 12:13:17;;;;;;;12.70;4.32;;;;;;;5.40;74.63;100364.06;4979619;28;20062;-83
2021/12/07 12:15:57;;;;;;;11.80;3.90;;;;;;;5.40;74.58;100371.84;4977511;28;20058;-81
2021/12/07 12:25:39;;;;;;;7.15;3.53;;;;;;;5.39;74.43;100365.00;4700310;30;20054;-82
2021/12/07 12:28:06;;;;;;;9.63;3.72;;;;;;;5.29;74.20;100351.16;4922901;23;20105;-82
2021/12/07 12:30:35;;;;;;;7.63;3.70;;;;;;;5.32;74.32;100343.94;4976169;28;20130;-81
2021/12/07 12:33:05;;;;;;;10.05;3.80;;;;;;;5.31;74.95;100341.47;4976892;28;20138;-84
2021/12/07 12:35:38;;;;;;;11.57;3.85;;;;;;;5.36;75.11;100341.91;4975970;28;20061;-82
2021/12/07 12:38:17;;;;;;;11.93;3.83;;;;;;;5.39;74.80;100328.69;4976493;28;20444;-82
2021/12/07 12:40:44;;;;;;;11.35;3.42;;;;;;;5.35;74.69;100327.31;4976234;28;20050;-81
2021/12/07 12:43:12;;;;;;;8.35;3.90;;;;;;;5.35;74.73;100335.09;4976616;28;20055;-82
2021/12/07 12:45:42;;;;;;;9.30;3.65;;;;;;;5.24;73.91;100330.78;4976722;28;20452;-83
2021/12/07 12:48:18;;;;;;;10.77;3.80;;;;;;;5.30;74.73;100321.69;4976091;28;20503;-83
2021/12/07 12:50:49;;;;;;;10.38;3.85;;;;;;;5.25;73.57;100321.25;4976321;28;20061;-83
2021/12/07 12:53:18;;;;;;;12.10;4.05;;;;;;;5.22;74.43;100317.13;4976758;28;20058;-82
2021/12/07 12:55:48;;;;;;;7.57;3.88;;;;;;;5.20;73.74;100319.03;4979946;28;20125;-83
2021/12/07 12:58:20;;;;;;;9.15;3.78;;;;;;;5.22;73.55;100324.09;4976066;28;20141;-83